Rio Rancho, NM

1:29 AM MDT on September 04, 2015 (GMT -0600)
Baltic View | | Change Station
CLOSE
Current Station
Personal Weather Station
Location: Rio Rancho, NM
Elevation: 5653 ft
Nearby Weather Stations

Elev 5653 ft 35.25 °N, 106.72 °W | Updated 14 seconds ago

Clear
Clear
69.1 °F
Feels Like 69.1 °F
N
1.1
Wind Variable Wind from South
Gusts 0.0 mph

Today
High -- | Low -- °F
--% Chance of Precip.
Yesterday
High -- | Low -- °F
Precip. -- in
6:41 AM 7:29 PM
Waning Gibbous, 62% visible
Pressure 30.12 in
Visibility 10.0 miles
Clouds Clear
Dew Point 49.1 °F
Humidity 49%
Rainfall 0.00 in
Snow Depth Not available.
UV 0 out of 12
Pollen 7.30 out of 12
Air Quality Not available.
Flu Activity Not available.
METAR KAEG 040715Z AUTO 23005KT 10SM CLR 19/09 A3012 RMK AO2 T01900085
Pressure 30.12 in
Visibility 10.0 miles
Clouds Clear
Dew Point 49.1 °F
Humidity 49%
Rainfall 0.00 in
Snow Depth Not available.
UV 0 out of 12
Pollen 7.30 out of 12
Air Quality Not available.
Flu Activity Not available.
METAR KAEG 040715Z AUTO 23005KT 10SM CLR 19/09 A3012 RMK AO2 T01900085

10-Day Weather Forecast

×

Almanac

Astronomy

Sep. 04, 2015 Rise Set
Actual Time
Civil Twilight
Nautical Twilight
Astronomical Twilight
Moon
Length of Visible Light
Length of Day
Tomorrow will be .
, % of the Moon is Illuminated

Today's Extremes

State Highs State Lows

Community

WunderPhotos

Upload Photos

1,852,132 photos uploaded!

WunderBlogs® & News

Nearby

Air Quality

  Air Quality AQ Index Pollutant
Not available.

Snow Depth

Station Depth Elevation

Earthquake Activity

City Distance Mag. Time & Date
Minimum magnitude displayed is 2.5.

Coastal Water Temperatures

Place Temperature

Stations

Nearby Weather Stations

Station Location Temp. Windchill Dew Point Humidity Wind Precip. Elev Updated Type